Time;durP1;ratioP1;P1;durP2;ratioP2;P2;SDS_P1;SDS_P2;PMS_P1;PMS_P2;Temp;Humidity;BMP_temperature;BMP_pressure;BME280_temperature;BME280_humidity;BME280_pressure;Samples;Min_cycle;Max_cycle;Signal;HPM_P1;HPM_P2
2022/12/02 00:01:45;;;;;;;19.57;8.73;;;;;;;0.61;84.40;101527.12;123657;1105;104200;-78
2022/12/02 00:04:22;;;;;;;23.30;9.37;;;;;;;0.60;84.53;101527.88;123735;1105;104341;-78
2022/12/02 00:06:56;;;;;;;23.13;9.27;;;;;;;0.60;84.63;101519.23;123382;1105;104268;-78
2022/12/02 00:09:30;;;;;;;27.20;9.18;;;;;;;0.60;84.44;101525.30;123424;1105;104187;-79
2022/12/02 00:12:02;;;;;;;;;;;;;;;0.60;84.87;101524.40;123364;1105;104216;-78
2022/12/02 00:14:36;;;;;;;22.20;9.05;;;;;;;0.59;84.91;101532.91;123241;1105;104223;-77
2022/12/02 00:17:05;;;;;;;;;;;;;;;0.59;84.89;101526.05;123351;1105;104271;-79
2022/12/02 00:19:36;;;;;;;21.90;8.93;;;;;;;0.58;84.51;101521.67;123398;1105;104319;-77
2022/12/02 00:22:07;;;;;;;21.97;9.30;;;;;;;0.57;84.53;101522.43;123391;1105;104242;-78
2022/12/02 00:24:38;;;;;;;21.95;8.65;;;;;;;0.57;84.16;101525.01;123398;1105;104371;-78
2022/12/02 00:27:10;;;;;;;23.43;9.30;;;;;;;0.56;85.00;101533.52;123594;1105;104287;-80
2022/12/02 00:29:41;;;;;;;23.57;9.60;;;;;;;0.54;84.98;101528.20;123518;1105;104511;-77
2022/12/02 00:32:12;;;;;;;22.63;9.10;;;;;;;0.55;84.89;101518.81;123377;1105;104312;-78
2022/12/02 00:34:43;;;;;;;23.50;9.90;;;;;;;0.54;84.57;101523.05;123476;1105;105613;-78
2022/12/02 00:37:15;;;;;;;22.03;8.93;;;;;;;0.56;84.44;101514.54;123330;1105;104261;-77
2022/12/02 00:39:46;;;;;;;25.77;9.13;;;;;;;0.57;84.24;101522.43;123533;1105;104261;-78
2022/12/02 00:42:17;;;;;;;26.03;9.73;;;;;;;0.57;84.59;101522.43;123421;1105;104369;-78
2022/12/02 00:47:37;;;;;;;21.97;8.20;;;;;;;0.59;84.49;101510.55;123490;1105;104189;-78
2022/12/02 00:50:10;;;;;;;26.47;9.40;;;;;;;0.58;84.35;101513.92;123369;1105;104338;-77
2022/12/02 00:52:41;;;;;;;19.93;8.63;;;;;;;0.59;85.07;101507.97;123323;1105;104239;-78
2022/12/02 00:55:12;;;;;;;23.13;8.57;;;;;;;0.60;84.61;101504.63;123449;1105;104371;-77
2022/12/02 00:57:44;;;;;;;24.67;9.37;;;;;;;0.58;84.17;101501.02;123417;1105;104291;-78
2022/12/02 01:00:16;;;;;;;21.93;9.00;;;;;;;0.56;84.53;101502.52;123718;1105;104712;-79
2022/12/02 01:02:48;;;;;;;24.30;9.53;;;;;;;0.58;84.34;101497.50;123554;1105;104380;-79
2022/12/02 01:05:19;;;;;;;23.03;9.87;;;;;;;0.56;84.20;101496.45;123388;1105;104216;-77
2022/12/02 01:07:51;;;;;;;21.30;8.53;;;;;;;0.59;84.19;101500.22;123275;1105;104214;-75
2022/12/02 01:10:22;;;;;;;22.97;8.77;;;;;;;0.62;84.82;101495.33;123289;1105;104258;-77
2022/12/02 01:12:53;;;;;;;23.27;9.53;;;;;;;0.66;84.58;101488.80;123362;1105;104347;-77
2022/12/02 01:15:25;;;;;;;25.33;8.67;;;;;;;0.68;84.52;101485.56;123118;1105;104389;-77
2022/12/02 01:17:56;;;;;;;20.43;8.73;;;;;;;0.68;84.69;101482.98;123763;1105;104258;-78
2022/12/02 01:20:27;;;;;;;24.63;8.63;;;;;;;0.66;83.37;101481.94;123802;1105;104266;-78
2022/12/02 01:22:59;;;;;;;20.20;8.33;;;;;;;0.64;84.52;101482.56;123540;1105;104269;-78
2022/12/02 01:25:30;;;;;;;21.73;9.27;;;;;;;0.65;84.36;101485.28;123483;1105;104258;-77
2022/12/02 01:28:01;;;;;;;22.15;8.90;;;;;;;0.65;84.20;101479.22;123450;1105;104283;-78
2022/12/02 01:30:33;;;;;;;21.73;9.37;;;;;;;0.65;84.63;101472.37;123479;1105;104262;-77
2022/12/02 01:33:04;;;;;;;22.60;9.17;;;;;;;0.65;84.26;101467.20;123613;1105;104316;-79
2022/12/02 01:35:35;;;;;;;23.37;8.30;;;;;;;0.65;84.11;101474.95;123431;1105;104319;-78
2022/12/02 01:38:06;;;;;;;27.00;9.77;;;;;;;0.64;84.03;101469.64;123728;1105;104395;-78
2022/12/02 01:40:39;;;;;;;22.27;8.63;;;;;;;0.65;84.69;101471.47;123457;1105;104335;-78
2022/12/02 01:43:11;;;;;;;21.20;8.80;;;;;;;0.69;84.57;101476.16;123387;1105;104261;-77
2022/12/02 01:45:42;;;;;;;23.07;9.13;;;;;;;0.70;84.10;101471.13;123876;1105;104284;-77
2022/12/02 01:48:13;;;;;;;20.50;8.20;;;;;;;0.73;84.92;101474.75;123427;1105;104325;-77
2022/12/02 01:50:46;;;;;;;21.90;8.73;;;;;;;0.73;84.41;101467.00;123433;1105;104341;-78
2022/12/02 01:53:18;;;;;;;20.30;7.97;;;;;;;0.74;84.40;101468.83;123663;1105;104182;-77
2022/12/02 01:55:49;;;;;;;21.53;8.53;;;;;;;0.75;84.31;101458.62;123601;1105;104309;-77
2022/12/02 01:58:25;;;;;;;26.27;9.50;;;;;;;0.73;84.81;101460.14;123976;1105;104219;-77
2022/12/02 02:00:57;;;;;;;22.27;8.77;;;;;;;0.74;84.53;101458.48;123401;1105;104347;-77
2022/12/02 02:03:29;;;;;;;23.47;8.93;;;;;;;0.74;84.57;101463.66;123582;1105;104200;-78
2022/12/02 02:06:00;;;;;;;26.97;9.77;;;;;;;0.71;84.46;101462.59;123422;1105;104293;-78
2022/12/02 02:08:32;;;;;;;27.57;10.00;;;;;;;0.69;84.58;101461.55;123798;1105;104293;-78
2022/12/02 02:11:03;;;;;;;22.97;9.07;;;;;;;0.70;84.67;101458.21;123278;1105;104367;-77
2022/12/02 02:13:34;;;;;;;23.77;9.73;;;;;;;0.71;84.68;101454.84;123474;1105;104290;-77
2022/12/02 02:16:07;;;;;;;27.40;10.20;;;;;;;0.71;84.21;101466.86;123429;1106;104405;-77
2022/12/02 02:18:39;;;;;;;23.37;9.53;;;;;;;0.68;84.57;101464.00;123196;1105;104325;-78
2022/12/02 02:21:15;;;;;;;21.40;8.00;;;;;;;0.70;84.95;101463.38;123317;1105;104294;-78
2022/12/02 02:23:47;;;;;;;22.30;8.73;;;;;;;0.69;84.78;101466.72;123403;1109;104236;-78
2022/12/02 02:26:18;;;;;;;22.57;9.20;;;;;;;0.69;84.79;101463.23;123374;1105;104240;-76
2022/12/02 02:28:50;;;;;;;24.37;8.57;;;;;;;0.68;84.94;101472.64;123379;1105;104286;-76
2022/12/02 02:31:22;;;;;;;27.80;9.07;;;;;;;0.68;84.30;101475.23;123353;1105;104290;-75
2022/12/02 02:33:53;;;;;;;22.47;8.73;;;;;;;0.66;84.21;101471.61;123556;1105;104338;-77
2022/12/02 02:36:24;;;;;;;22.25;8.45;;;;;;;0.66;84.88;101471.61;123481;1105;104290;-75
2022/12/02 02:38:57;;;;;;;22.37;8.30;;;;;;;0.66;84.36;101463.86;123545;1105;104339;-78
2022/12/02 02:41:30;;;;;;;22.90;8.43;;;;;;;0.56;84.63;101452.55;123430;1106;104435;-78
2022/12/02 02:44:01;;;;;;;23.57;8.87;;;;;;;0.63;84.26;101466.16;123697;1105;104339;-78
2022/12/02 02:46:33;;;;;;;21.43;8.80;;;;;;;0.65;84.51;101474.05;123393;1105;104692;-78
2022/12/02 02:49:04;;;;;;;20.93;8.57;;;;;;;0.64;84.73;101467.06;123243;1105;104299;-77
2022/12/02 02:51:36;;;;;;;25.20;8.73;;;;;;;0.65;84.65;101472.37;123369;1109;104351;-78
2022/12/02 02:54:08;;;;;;;22.50;9.07;;;;;;;0.68;84.16;101474.33;123340;1105;104283;-77
2022/12/02 02:56:39;;;;;;;24.87;9.17;;;;;;;0.70;84.45;101472.78;123167;1105;104287;-77
2022/12/02 02:59:14;;;;;;;21.63;8.30;;;;;;;0.71;84.57;101475.51;123031;1105;104249;-76
2022/12/02 03:01:49;;;;;;;24.40;9.70;;;;;;;0.70;84.47;101473.71;123469;1109;104331;-78
2022/12/02 03:04:24;;;;;;;25.30;8.70;;;;;;;0.72;84.56;101476.44;123202;1105;104344;-77
2022/12/02 03:06:56;;;;;;;22.27;9.07;;;;;;;0.74;84.84;101472.30;123259;1105;104261;-77
2022/12/02 03:09:27;;;;;;;26.03;9.50;;;;;;;0.74;84.53;101472.30;123409;1105;107997;-77
2022/12/02 03:11:59;;;;;;;25.97;9.63;;;;;;;0.72;84.52;101479.02;123184;1105;104323;-78
2022/12/02 03:14:31;;;;;;;24.33;9.23;;;;;;;0.73;84.40;101477.33;123277;1104;104313;-77
2022/12/02 03:17:04;;;;;;;25.37;9.47;;;;;;;0.74;84.55;101479.16;123272;1105;104194;-78
2022/12/02 03:19:37;;;;;;;27.17;9.93;;;;;;;0.76;85.03;101481.09;123169;1105;104520;-77
2022/12/02 03:22:09;;;;;;;22.77;9.10;;;;;;;0.77;84.31;101479.44;123547;1105;104293;-78
2022/12/02 03:24:41;;;;;;;25.93;11.20;;;;;;;0.74;83.84;101486.91;123475;1105;104239;-78
2022/12/02 03:27:13;;;;;;;25.27;10.57;;;;;;;0.74;84.43;101489.49;123316;1105;104284;-78
2022/12/02 03:29:45;;;;;;;27.43;10.20;;;;;;;0.74;84.30;101485.22;123239;1105;104239;-77
2022/12/02 03:32:17;;;;;;;24.00;9.85;;;;;;;0.75;84.24;101487.05;123325;1105;104354;-77
2022/12/02 03:34:48;;;;;;;24.50;9.15;;;;;;;0.76;84.10;101490.53;123455;1105;104642;-78
2022/12/02 03:37:19;;;;;;;28.57;9.83;;;;;;;0.75;84.14;101486.12;123341;1105;104373;-77
2022/12/02 03:39:51;;;;;;;24.10;9.73;;;;;;;0.74;84.68;101489.49;123159;1105;104245;-78
2022/12/02 03:42:22;;;;;;;20.33;8.10;;;;;;;0.76;84.35;101486.26;123358;1105;104373;-77
2022/12/02 03:44:54;;;;;;;26.87;9.33;;;;;;;0.77;84.10;101484.61;123292;1105;104281;-77
2022/12/02 03:47:25;;;;;;;23.00;8.60;;;;;;;0.77;84.65;101484.61;123365;1105;104766;-77
2022/12/02 03:49:57;;;;;;;22.93;8.43;;;;;;;0.77;84.45;101485.50;123407;1105;104409;-77
2022/12/02 03:52:29;;;;;;;24.80;9.17;;;;;;;0.74;84.20;101476.58;123304;1105;104399;-77
2022/12/02 03:55:01;;;;;;;28.03;9.17;;;;;;;0.76;84.34;101477.61;123429;1105;104241;-77
2022/12/02 03:57:35;;;;;;;24.63;8.33;;;;;;;0.78;84.30;101488.98;123226;1105;104422;-78
2022/12/02 04:00:08;;;;;;;21.87;8.33;;;;;;;0.79;84.32;101483.05;123529;1105;104185;-78
2022/12/02 04:02:43;;;;;;;25.07;8.57;;;;;;;0.80;84.50;101484.88;123323;1105;104373;-78
2022/12/02 04:05:14;;;;;;;20.30;7.53;;;;;;;0.81;84.71;101497.02;123510;1105;104184;-77
2022/12/02 04:07:45;;;;;;;20.40;7.70;;;;;;;0.79;84.44;101489.12;123400;1105;104293;-77
2022/12/02 04:10:17;;;;;;;21.37;8.30;;;;;;;0.81;84.57;101492.77;123374;1105;104661;-77
2022/12/02 04:12:48;;;;;;;22.40;8.30;;;;;;;0.83;84.52;101482.58;123323;1105;104216;-78
2022/12/02 04:15:19;;;;;;;24.13;9.17;;;;;;;0.82;84.19;101480.75;123382;1105;104329;-77
2022/12/02 04:17:50;;;;;;;23.27;8.47;;;;;;;0.79;84.06;101473.62;123395;1105;104194;-77
2022/12/02 04:20:22;;;;;;;24.67;9.73;;;;;;;0.78;84.50;101473.48;123295;1105;104326;-76
2022/12/02 04:22:53;;;;;;;27.17;9.63;;;;;;;0.76;84.41;101472.44;123299;1105;104312;-77
2022/12/02 04:25:24;;;;;;;24.17;9.47;;;;;;;0.78;84.64;101471.83;123066;1106;104261;-76
2022/12/02 04:27:55;;;;;;;31.07;10.63;;;;;;;0.79;84.85;101476.20;123222;1105;104399;-78
2022/12/02 04:30:26;;;;;;;32.23;11.57;;;;;;;0.78;84.83;101478.64;123261;1105;104287;-78
2022/12/02 04:32:57;;;;;;;28.77;10.57;;;;;;;0.75;84.94;101481.88;123122;1105;104243;-77
2022/12/02 04:35:29;;;;;;;30.20;10.55;;;;;;;0.77;84.85;101485.50;123317;1105;104261;-78
2022/12/02 04:38:00;;;;;;;31.13;10.73;;;;;;;0.76;84.85;101481.09;123141;1105;104373;-77
2022/12/02 04:40:31;;;;;;;29.53;10.43;;;;;;;0.76;84.99;101488.84;123120;1105;104290;-77
2022/12/02 04:43:02;;;;;;;29.73;10.57;;;;;;;0.76;85.03;101487.95;123443;1105;104392;-78
2022/12/02 04:45:33;;;;;;;28.10;8.83;;;;;;;0.74;85.15;101494.66;124363;1105;104312;-77
2022/12/02 04:48:07;;;;;;;24.30;9.13;;;;;;;0.71;85.29;101500.45;123959;1105;104332;-77
2022/12/02 04:50:38;;;;;;;25.23;9.08;;;;;;;0.69;85.09;101492.55;123388;1105;104457;-76
2022/12/02 04:53:09;;;;;;;20.67;8.43;;;;;;;0.70;84.97;101494.38;124111;1105;104261;-77
2022/12/02 04:55:42;;;;;;;24.13;9.10;;;;;;;0.69;85.37;101496.83;124028;1105;104367;-76
2022/12/02 04:58:14;;;;;;;22.83;9.03;;;;;;;0.68;85.41;101493.31;124392;1105;104217;-77
2022/12/02 05:00:45;;;;;;;22.40;8.23;;;;;;;0.67;85.20;101488.94;124327;1105;104356;-76
2022/12/02 05:03:19;;;;;;;22.57;9.47;;;;;;;0.69;85.47;101489.97;123721;1105;104214;-76
2022/12/02 05:05:50;;;;;;;23.13;8.57;;;;;;;0.73;85.46;101488.56;123610;1105;104239;-74
2022/12/02 05:08:21;;;;;;;21.80;8.70;;;;;;;0.71;85.38;101493.59;123723;1105;104249;-75
2022/12/02 05:10:52;;;;;;;23.87;8.73;;;;;;;0.70;85.49;101488.28;123913;1105;104210;-75
2022/12/02 05:13:23;;;;;;;23.93;9.17;;;;;;;0.70;85.14;101493.45;124022;1105;104665;-74
2022/12/02 05:49:19;;;;;;;25.85;9.10;;;;;;;0.60;86.19;101493.41;126158;1096;102735;-73
2022/12/02 05:51:57;;;;;;;25.47;9.27;;;;;;;0.60;87.24;101498.56;125945;1104;101857;-74
2022/12/02 05:54:29;;;;;;;26.10;10.47;;;;;;;0.55;87.18;101500.73;124900;1106;104286;-74
2022/12/02 05:57:06;;;;;;;27.90;12.55;;;;;;;0.50;86.81;101495.14;126501;1095;102526;-72
2022/12/02 06:10:25;;;;;;;31.07;15.48;;;;;;;0.93;86.85;101507.56;126664;1092;103001;-73
2022/12/02 06:12:59;;;;;;;26.87;11.50;;;;;;;0.78;87.25;101512.23;125345;1105;104274;-77
2022/12/02 06:15:37;;;;;;;27.93;11.17;;;;;;;0.67;87.39;101501.85;125586;1105;102728;-76
2022/12/02 06:18:15;;;;;;;27.27;12.13;;;;;;;0.59;87.70;101509.66;125690;1105;102162;-75
2022/12/02 06:20:48;;;;;;;29.57;10.80;;;;;;;0.54;88.03;101509.23;125608;1105;106974;-75
2022/12/02 06:23:20;;;;;;;25.07;8.83;;;;;;;0.49;88.26;101513.08;125290;1105;103256;-75
2022/12/02 06:25:54;;;;;;;26.30;10.15;;;;;;;0.45;88.26;101518.71;125520;1104;101895;-76
2022/12/02 06:28:29;;;;;;;23.85;10.08;;;;;;;0.41;87.75;101514.05;125099;1105;104366;-76
2022/12/02 06:31:09;;;;;;;25.13;8.83;;;;;;;0.40;88.70;101513.12;124364;1105;118050;-75
2022/12/02 06:33:42;;;;;;;27.57;9.90;;;;;;;0.40;88.98;101520.88;124731;1105;103050;-76
2022/12/02 06:36:18;;;;;;;26.77;9.33;;;;;;;0.38;88.99;101518.94;124186;1105;104225;-76
2022/12/02 06:39:26;;;;;;;25.37;9.13;;;;;;;0.38;88.15;101513.77;124299;1105;102076;-75
2022/12/02 06:42:02;;;;;;;28.07;10.67;;;;;;;0.36;89.18;101511.05;124672;1105;102240;-75
2022/12/02 06:48:07;;;;;;;31.50;10.60;;;;;;;0.34;89.51;101518.65;124442;1106;102639;-76
2022/12/02 06:50:42;;;;;;;26.33;10.73;;;;;;;0.37;88.97;101517.11;124439;1105;104217;-77
2022/12/02 06:53:33;;;;;;;30.43;11.27;;;;;;;0.39;89.60;101518.14;125048;1103;102579;-77
2022/12/02 06:56:11;;;;;;;26.23;10.97;;;;;;;0.36;89.28;101521.37;124441;1106;104178;-77
2022/12/02 06:58:44;;;;;;;36.83;11.10;;;;;;;0.38;89.23;101518.94;125889;1101;103796;-77
2022/12/02 07:01:24;;;;;;;29.67;10.87;;;;;;;0.38;90.00;101524.09;125982;1102;102614;-78
2022/12/02 07:04:30;;;;;;;30.90;12.23;;;;;;;0.39;90.01;101525.89;125886;1102;102593;-77
2022/12/02 07:07:11;;;;;;;31.40;12.17;;;;;;;0.41;89.91;101517.53;125919;1102;102014;-78
2022/12/02 07:09:46;;;;;;;31.33;12.13;;;;;;;0.43;89.95;101515.98;125853;1102;103854;-79
2022/12/02 07:12:21;;;;;;;26.87;11.07;;;;;;;0.44;88.84;101520.40;125879;1102;102767;-77
2022/12/02 07:14:56;;;;;;;47.33;17.80;;;;;;;0.46;89.90;101515.37;125935;1102;102503;-76
2022/12/02 07:17:30;;;;;;;45.23;16.60;;;;;;;0.47;89.15;101517.20;125784;1102;102691;-81
2022/12/02 07:20:32;;;;;;;34.20;13.53;;;;;;;0.49;89.47;101526.89;125876;1102;102570;-77
2022/12/02 07:23:32;;;;;;;36.83;16.13;;;;;;;0.51;89.09;101520.21;125798;1105;102758;-77
2022/12/02 07:26:14;;;;;;;31.77;13.20;;;;;;;0.55;88.95;101526.56;125986;1102;102810;-76
2022/12/02 07:29:04;;;;;;;33.70;13.13;;;;;;;0.60;89.33;101519.23;125945;1102;102271;-76
2022/12/02 07:31:45;;;;;;;31.40;12.57;;;;;;;0.59;89.78;101523.47;125669;1102;102244;-77
2022/12/02 07:34:55;;;;;;;30.57;11.87;;;;;;;0.60;89.98;101522.71;125749;1102;101457;-76
2022/12/02 07:37:32;;;;;;;35.13;12.77;;;;;;;0.58;90.30;101519.09;125687;1102;102618;-78
2022/12/02 07:40:32;;;;;;;34.07;11.10;;;;;;;0.59;89.94;101517.41;126039;1102;102975;-77
2022/12/02 07:43:04;;;;;;;29.73;10.77;;;;;;;0.59;90.08;101522.57;125802;1104;101794;-77
2022/12/02 07:45:49;;;;;;;33.50;11.90;;;;;;;0.62;89.94;101523.75;125889;1102;102200;-77
2022/12/02 07:48:22;;;;;;;28.77;11.03;;;;;;;0.65;89.44;101516.28;125778;1102;102207;-77
2022/12/02 07:50:53;;;;;;;31.73;11.77;;;;;;;0.70;89.79;101520.22;125846;1102;102382;-78
2022/12/02 07:53:27;;;;;;;30.13;10.57;;;;;;;0.78;89.95;101518.33;125800;1102;102970;-78
2022/12/02 07:56:04;;;;;;;29.27;11.70;;;;;;;0.80;90.12;101516.78;125792;1102;102326;-77
2022/12/02 07:58:49;;;;;;;32.83;12.93;;;;;;;0.81;89.75;101522.84;125894;1102;102205;-77
2022/12/02 08:01:24;;;;;;;30.93;13.27;;;;;;;0.83;89.81;101526.50;125847;1102;101960;-78
2022/12/02 08:04:05;;;;;;;33.80;12.53;;;;;;;0.84;89.46;101525.71;125875;1102;101375;-77
2022/12/02 08:06:47;;;;;;;31.03;12.33;;;;;;;0.85;89.53;101519.79;125338;1105;104005;-79
2022/12/02 08:09:53;;;;;;;30.40;11.00;;;;;;;0.85;89.56;101522.38;124590;1102;104281;-78
2022/12/02 08:12:41;;;;;;;32.80;11.60;;;;;;;0.83;89.41;101517.06;125297;1105;102206;-76
2022/12/02 08:15:15;;;;;;;27.63;10.90;;;;;;;0.86;89.76;101522.52;125424;1102;103105;-77
2022/12/02 08:17:56;;;;;;;31.93;12.07;;;;;;;0.88;89.62;101528.72;124638;1102;104140;-76
2022/12/02 08:20:29;;;;;;;32.77;10.93;;;;;;;0.91;89.68;101520.34;125395;1102;103035;-79
2022/12/02 08:23:04;;;;;;;32.93;11.90;;;;;;;0.93;89.34;101529.13;125289;1102;104661;-77
2022/12/02 08:25:36;;;;;;;33.10;12.13;;;;;;;0.93;89.64;101529.13;125359;1105;102590;-76
2022/12/02 08:28:18;;;;;;;;;;;;;;;;;;;;;
2022/12/02 08:31:24;;;;;;;33.13;13.60;;;;;;;1.04;89.50;101533.62;125253;1102;102255;-80
2022/12/02 08:34:11;;;;;;;36.93;12.37;;;;;;;1.10;89.51;101522.91;125463;1102;101987;-78
2022/12/02 08:36:53;;;;;;;32.17;13.40;;;;;;;1.13;89.72;101527.45;125392;1102;102741;-79
2022/12/02 08:39:31;;;;;;;32.43;12.97;;;;;;;1.10;89.61;101524.59;125468;1102;104178;-77
2022/12/02 08:42:04;;;;;;;32.93;14.07;;;;;;;1.08;89.62;101517.59;125298;1102;103068;-78
2022/12/02 08:44:35;;;;;;;33.40;11.97;;;;;;;1.07;89.65;101515.77;125185;1102;104206;-77
2022/12/02 08:47:08;;;;;;;;;;;;;;;1.09;89.58;101521.08;125552;1106;102764;-77
2022/12/02 08:49:43;;;;;;;28.57;10.97;;;;;;;1.10;89.80;101515.15;125622;1102;104079;-77
2022/12/02 08:52:13;;;;;;;;;;;;;;;1.16;90.09;101519.97;125496;1101;104159;-79
2022/12/02 08:54:52;;;;;;;33.67;14.33;;;;;;;1.16;90.14;101517.39;125559;1103;102268;-77
2022/12/02 08:57:28;;;;;;;32.10;12.97;;;;;;;1.18;90.17;101521.01;125393;1105;104027;-76
2022/12/02 09:00:11;;;;;;;35.87;13.37;;;;;;;1.24;89.53;101511.22;125442;1105;104083;-76
2022/12/02 09:02:45;;;;;;;32.07;12.33;;;;;;;1.28;89.92;101512.38;125314;1102;104137;-77
2022/12/02 09:05:21;;;;;;;34.37;12.07;;;;;;;1.27;89.44;101514.08;125054;1102;103520;-76
2022/12/02 09:08:03;;;;;;;33.37;10.70;;;;;;;1.27;89.37;101513.17;125541;1101;102492;31
2022/12/02 09:10:36;;;;;;;30.80;13.10;;;;;;;1.26;88.98;101509.66;124861;1106;103170;-76
2022/12/02 09:13:09;;;;;;;31.93;11.93;;;;;;;1.28;88.99;101508.14;124615;1105;104252;-75
2022/12/02 09:15:41;;;;;;;26.60;10.77;;;;;;;1.34;89.31;101508.69;124417;1105;103383;-78
2022/12/02 09:18:15;;;;;;;31.10;12.53;;;;;;;1.40;89.19;101503.12;124396;1105;102367;-76
2022/12/02 09:20:47;;;;;;;31.55;11.35;;;;;;;1.43;89.19;101509.50;124243;1105;104325;-81
2022/12/02 09:23:18;;;;;;;31.83;13.17;;;;;;;1.46;89.16;101502.78;124512;1105;102297;-77
2022/12/02 09:25:49;;;;;;;31.47;12.13;;;;;;;1.48;89.33;101499.56;124392;1105;103733;-77
2022/12/02 09:28:22;;;;;;;32.30;11.40;;;;;;;1.50;88.91;101499.70;124377;1105;104069;-77
2022/12/02 09:30:56;;;;;;;31.43;11.03;;;;;;;1.47;88.98;101502.91;124560;1106;102690;-77
2022/12/02 09:33:27;;;;;;;42.38;11.03;;;;;;;1.47;88.73;101495.16;124528;1105;102535;-80
2022/12/02 09:36:04;;;;;;;25.50;10.33;;;;;;;1.47;88.77;101504.60;124509;1105;104281;-77
2022/12/02 09:38:36;;;;;;;28.87;11.03;;;;;;;1.45;88.07;101501.87;124440;1105;103642;-79
2022/12/02 09:41:11;;;;;;;29.50;10.47;;;;;;;1.46;88.53;101502.78;124707;1105;102365;-79
2022/12/02 09:43:43;;;;;;;26.63;9.83;;;;;;;1.48;89.12;101506.39;124659;1105;103106;-82
2022/12/02 09:46:15;;;;;;;25.63;10.33;;;;;;;1.51;89.23;101509.25;124499;1104;102838;-77
2022/12/02 09:48:48;;;;;;;31.40;11.13;;;;;;;1.51;88.63;101507.59;124589;1105;104376;-79
2022/12/02 09:51:20;;;;;;;28.20;10.70;;;;;;;1.52;89.05;101505.91;124552;1105;104374;-77
2022/12/02 09:53:54;;;;;;;28.52;9.23;;;;;;;1.51;87.71;101506.67;124522;1105;104210;-77
2022/12/02 09:56:29;;;;;;;26.27;10.05;;;;;;;1.52;88.05;101505.91;124414;1105;103899;-78
2022/12/02 09:59:07;;;;;;;28.80;10.03;;;;;;;1.54;88.30;101501.77;124307;1105;102126;-78
2022/12/02 10:01:43;;;;;;;25.70;10.23;;;;;;;1.59;88.85;101503.99;124397;1105;102513;-79
2022/12/02 10:04:26;;;;;;;32.27;10.47;;;;;;;1.67;88.83;101501.14;124505;1104;102876;-79
2022/12/02 10:06:59;;;;;;;26.67;11.33;;;;;;;1.72;89.04;101503.38;124470;1106;104242;-79
2022/12/02 10:09:44;;;;;;;26.53;10.37;;;;;;;1.69;88.53;101502.21;124639;1105;102633;-77
2022/12/02 10:12:47;;;;;;;30.97;10.90;;;;;;;1.68;88.62;101501.28;125259;1105;103433;-78
2022/12/02 10:15:25;;;;;;;25.77;9.40;;;;;;;1.68;88.71;101493.52;124371;1105;102971;-79
2022/12/02 10:18:03;;;;;;;25.77;11.00;;;;;;;1.65;88.37;101497.53;124423;1105;102775;-79
2022/12/02 10:20:37;;;;;;;27.63;10.43;;;;;;;1.65;88.47;101503.59;125827;1105;101911;-78
2022/12/02 10:23:11;;;;;;;27.67;9.37;;;;;;;1.68;88.84;101501.28;125762;1104;102858;-78
2022/12/02 10:25:45;;;;;;;27.07;11.30;;;;;;;1.68;88.39;101501.28;125733;1103;108105;-78
2022/12/02 10:28:25;;;;;;;27.30;9.90;;;;;;;1.69;88.07;101500.52;125789;1104;102173;-80
2022/12/02 10:31:13;;;;;;;25.73;9.67;;;;;;;1.71;88.34;101501.55;125693;1105;102079;-80
2022/12/02 10:33:53;;;;;;;26.53;9.73;;;;;;;1.72;87.86;101498.20;125859;1105;102329;-82
2022/12/02 10:36:34;;;;;;;28.20;9.43;;;;;;;1.76;88.48;101491.59;125668;1105;102556;-78
2022/12/02 10:39:35;;;;;;;27.90;10.03;;;;;;;1.85;88.62;101492.39;125805;1104;102520;-77
2022/12/02 10:42:20;;;;;;;30.40;11.07;;;;;;;1.88;88.56;101496.94;125498;1108;101774;-77
2022/12/02 10:45:15;;;;;;;26.73;10.45;;;;;;;1.91;87.71;101487.75;125688;1105;103129;-81
2022/12/02 10:47:50;;;;;;;28.97;10.37;;;;;;;1.90;87.82;101488.55;125814;1104;102425;-77
2022/12/02 10:50:24;;;;;;;26.10;9.17;;;;;;;1.94;88.28;101492.30;125847;1105;101908;-78
2022/12/02 10:53:00;;;;;;;27.15;9.65;;;;;;;1.93;88.28;101490.47;125765;1104;102516;-79
2022/12/02 10:55:40;;;;;;;28.70;10.07;;;;;;;1.89;88.48;101489.31;125833;1105;102792;-78
2022/12/02 10:58:23;;;;;;;25.27;9.20;;;;;;;1.90;87.72;101497.97;125854;1103;103311;-77
2022/12/02 11:00:54;;;;;;;22.70;8.70;;;;;;;1.86;88.42;101491.63;125691;1105;102636;-76
2022/12/02 11:03:26;;;;;;;23.00;8.47;;;;;;;1.80;86.97;101494.58;125869;1104;101402;-81
2022/12/02 11:06:01;;;;;;;25.50;9.37;;;;;;;1.79;87.50;101495.38;125774;1105;101859;-77
2022/12/02 11:08:35;;;;;;;28.23;10.37;;;;;;;1.82;87.68;101499.89;125626;1105;102873;-76
2022/12/02 11:11:15;;;;;;;26.27;10.23;;;;;;;1.80;87.22;101496.28;125678;1104;103565;-78
2022/12/02 11:13:58;;;;;;;27.47;10.60;;;;;;;1.82;87.90;101496.41;125757;1105;102695;-78
2022/12/02 11:17:07;;;;;;;24.20;9.53;;;;;;;1.85;87.36;101489.80;125703;1104;101810;-76
2022/12/02 11:19:46;;;;;;;25.90;9.33;;;;;;;1.84;87.40;101487.09;125768;1105;101401;-78
2022/12/02 11:22:52;;;;;;;26.93;9.00;;;;;;;1.82;87.50;101492.13;125806;1104;102123;-77
2022/12/02 11:25:54;;;;;;;30.27;9.93;;;;;;;1.80;87.36;101484.23;125731;1105;102595;-76
2022/12/02 11:28:45;;;;;;;30.73;10.00;;;;;;;1.88;87.90;101489.17;125616;1105;102014;-76
2022/12/02 11:31:29;;;;;;;26.30;9.13;;;;;;;1.91;86.62;101492.03;125710;1105;102823;-78
2022/12/02 11:34:40;;;;;;;27.93;10.43;;;;;;;1.88;87.54;101495.25;125728;1105;102322;-76
2022/12/02 11:37:36;;;;;;;26.10;10.43;;;;;;;1.88;87.70;101494.36;125681;1105;102108;-79
2022/12/02 11:40:57;;;;;;;29.80;9.93;;;;;;;1.89;87.15;101496.18;125826;1104;102186;-76
2022/12/02 11:43:54;;;;;;;23.90;9.27;;;;;;;1.90;87.53;101500.56;125739;1105;102242;-78
2022/12/02 11:46:44;;;;;;;23.07;9.30;;;;;;;1.90;87.44;101490.20;125805;1104;101876;-78
2022/12/02 11:49:31;;;;;;;28.93;9.90;;;;;;;1.86;86.63;101512.34;125972;1104;102993;-79
2022/12/02 11:52:20;;;;;;;27.67;9.60;;;;;;;1.83;87.36;101500.83;126012;1103;101357;-77
2022/12/02 11:55:11;;;;;;;26.07;10.27;;;;;;;1.80;87.72;101504.05;125749;1105;102811;-76
2022/12/02 11:57:48;;;;;;;28.07;10.43;;;;;;;1.80;87.56;101496.28;125699;1105;108826;-81
2022/12/02 12:00:34;;;;;;;24.95;10.00;;;;;;;1.79;86.79;101508.32;125806;1105;101837;-77
2022/12/02 12:03:13;;;;;;;25.67;9.73;;;;;;;1.77;86.98;101506.36;125857;1105;102825;-78
2022/12/02 12:06:09;;;;;;;22.37;9.13;;;;;;;1.73;86.87;101505.20;125773;1105;101984;-81
2022/12/02 12:08:48;;;;;;;26.17;10.37;;;;;;;1.75;87.40;101503.64;125751;1105;103061;-79
2022/12/02 12:11:29;;;;;;;29.07;12.17;;;;;;;1.84;87.84;101500.03;125797;1105;102577;-78
2022/12/02 12:14:07;;;;;;;28.60;10.87;;;;;;;1.86;87.71;101506.27;125730;1105;102924;-77
2022/12/02 12:16:41;;;;;;;32.00;11.47;;;;;;;1.89;87.24;101499.66;125798;1105;102169;-80
2022/12/02 12:19:29;;;;;;;25.80;9.38;;;;;;;1.88;87.57;101502.12;125869;1105;102622;-77
2022/12/02 12:22:00;;;;;;;26.63;10.03;;;;;;;1.84;87.53;101500.03;125854;1105;102030;-79
2022/12/02 12:24:38;;;;;;;24.90;9.53;;;;;;;1.80;87.68;101497.17;125771;1104;102148;-77
2022/12/02 12:27:34;;;;;;;28.73;12.00;;;;;;;1.82;87.69;101509.35;125764;1105;101809;-82
2022/12/02 12:30:12;;;;;;;27.67;10.00;;;;;;;1.74;87.41;101499.23;125748;1105;101967;-80
2022/12/02 12:32:45;;;;;;;30.73;12.17;;;;;;;1.73;87.81;101502.61;125933;1105;101917;-81
2022/12/02 12:35:18;;;;;;;28.12;10.45;;;;;;;1.73;88.75;101502.61;125879;1105;103512;-80
2022/12/02 12:37:50;;;;;;;28.93;11.60;;;;;;;1.72;88.09;101510.24;125818;1105;102633;-77
2022/12/02 12:40:21;;;;;;;29.57;10.53;;;;;;;1.67;88.19;101509.84;125794;1105;101652;-76